Terminal Aerodrome Forecast
Issued by NWS Knoxville/Tri Cities, TN

Home | Current Version | Previous Version | Text Only | Print | Product List | Glossary On
Versions: 1 2 3 4 5 6 7 8 9 10 11 12 13 14 15 16 17 18 19 20 21 22 23 24 25 26 27 28 29 30 31 32 33 34 35 36 37 38
000
FTUS44 KMRX 061128
TAFCHA
TAF
KCHA 061128Z 0612/0712 00000KT P6SM FEW015 SCT025 BKN250
      TEMPO 0612/0613 BKN025
     FM061300 22004KT P6SM SCT030 SCT250
     FM061800 25007KT P6SM SCT045
     FM070100 00000KT P6SM FEW050
     FM070600 00000KT P6SM SCT250=

USA.gov is the U.S. government's official web portal to all federal, state and local government web resources and services.